Beatty, Nevada
Current Conditions -  °F | °C
As of 10:52 AM on Thursday 25 Dec 2014 (Local Time) from KDRA Reporting Station
Few Clouds Few Clouds  
Wind Chill: 38°   Ceiling: Unl
Heat Index: 44°   Visibility: 10mi
Dew Point: 13°   Wind: 13mph
Humidity: 28%   Direction: 340°NNW
Pressure: 29.9"   Gusts: 16mph
Location:  36.91°N, 116.76°W
Report Text: KDRA 251852Z AUTO 34011G14KT 10SM FEW065 07/M11 A2990 RMK AO2 PK WND 01031/1825 SLP107 T00671106 $
Loading
Personal Weather Stations






























Interactive Weather Map New forecast layout! Learn more

10-Day Weather Forecast

Advertisements
Track Severe Weather on mobile